Time;durP1;ratioP1;P1;durP2;ratioP2;P2;SDS_P1;SDS_P2;PMS_P1;PMS_P2;Temp;Humidity;BMP_temperature;BMP_pressure;BME280_temperature;BME280_humidity;BME280_pressure;Samples;Min_cycle;Max_cycle;Signal;HPM_P1;HPM_P2
2021/06/16 00:00:17;;;;;;;6.90;6.30;;;;;;;;;;5036129;28;20764;-79
2021/06/16 00:02:44;;;;;;;7.10;6.40;;;;;;;;;;5033198;28;20455;-78
2021/06/16 00:05:12;;;;;;;6.70;6.00;;;;;;;;;;5037194;28;20517;-80
2021/06/16 00:07:39;;;;;;;6.10;5.50;;;;;;;;;;5033235;28;20524;-78
2021/06/16 00:10:07;;;;;;;7.40;6.80;;;;;;;;;;5031894;28;20454;-77
2021/06/16 00:12:36;;;;;;;5.93;5.43;;;;;;;;;;5030293;28;20491;-78
2021/06/16 00:15:05;;;;;;;7.90;6.10;;;;;;;;;;5032246;28;21035;-79
2021/06/16 00:17:35;;;;;;;6.87;6.37;;;;;;;;;;5034548;28;21262;-78
2021/06/16 00:20:02;;;;;;;6.57;6.03;;;;;;;;;;5032169;28;20470;-78
2021/06/16 00:22:30;;;;;;;6.87;6.27;;;;;;;;;;5035456;28;20814;-78
2021/06/16 00:24:58;;;;;;;6.30;5.70;;;;;;;;;;5038048;28;20454;-78
2021/06/16 00:27:25;;;;;;;7.10;6.47;;;;;;;;;;5033218;28;20584;-79
2021/06/16 00:29:53;;;;;;;7.63;6.93;;;;;;;;;;5031816;28;20481;-78
2021/06/16 00:32:21;;;;;;;7.03;6.33;;;;;;;;;;5032949;28;21000;-78
2021/06/16 00:34:48;;;;;;;6.77;6.27;;;;;;;;;;5029752;28;21947;-78
2021/06/16 00:37:15;;;;;;;7.67;6.53;;;;;;;;;;5034826;28;20454;-78
2021/06/16 00:39:42;;;;;;;6.80;6.27;;;;;;;;;;5034391;28;20784;-79
2021/06/16 00:42:09;;;;;;;7.40;6.80;;;;;;;;;;5034167;28;20455;-79
2021/06/16 00:44:36;;;;;;;7.33;6.53;;;;;;;;;;5035125;28;21134;-79
2021/06/16 00:47:05;;;;;;;6.60;6.10;;;;;;;;;;5033979;28;20875;-79
2021/06/16 00:49:33;;;;;;;6.90;6.40;;;;;;;;;;5033818;28;20538;-78
2021/06/16 00:52:00;;;;;;;6.40;5.77;;;;;;;;;;5034703;28;20462;-79
2021/06/16 00:54:27;;;;;;;7.20;6.70;;;;;;;;;;5036864;28;20446;-78
2021/06/16 00:56:54;;;;;;;7.33;6.73;;;;;;;;;;5030266;28;20459;-78
2021/06/16 00:59:22;;;;;;;7.73;6.40;;;;;;;;;;5032837;28;20496;-78
2021/06/16 01:01:50;;;;;;;7.47;6.77;;;;;;;;;;5031447;28;20494;-79
2021/06/16 01:04:23;;;;;;;7.00;6.33;;;;;;;;;;5034642;28;20446;-78
2021/06/16 01:06:52;;;;;;;7.97;7.20;;;;;;;;;;5031809;28;20524;-79
2021/06/16 01:09:21;;;;;;;7.27;6.57;;;;;;;;;;5031999;28;20545;-79
2021/06/16 01:11:55;;;;;;;7.10;6.50;;;;;;;;;;5028794;28;20516;-78
2021/06/16 01:14:28;;;;;;;8.63;6.33;;;;;;;;;;5035507;28;20503;-78
2021/06/16 01:16:57;;;;;;;7.60;6.90;;;;;;;;;;5029365;28;20556;-79
2021/06/16 01:19:33;;;;;;;8.07;7.30;;;;;;;;;;5036006;28;20486;-78
2021/06/16 01:22:03;;;;;;;8.00;7.27;;;;;;;;;;5034831;28;20473;-78
2021/06/16 01:24:32;;;;;;;7.47;6.80;;;;;;;;;;5033993;28;20450;-78
2021/06/16 01:27:01;;;;;;;7.13;6.33;;;;;;;;;;5026131;28;20466;-78
2021/06/16 01:29:30;;;;;;;7.60;6.90;;;;;;;;;;5034325;28;20481;-79
2021/06/16 01:31:58;;;;;;;8.33;7.53;;;;;;;;;;5038116;28;20443;-79
2021/06/16 01:34:25;;;;;;;7.80;7.20;;;;;;;;;;5032125;28;20497;-80
2021/06/16 01:36:54;;;;;;;7.90;7.13;;;;;;;;;;5033452;28;20443;-79
2021/06/16 01:39:22;;;;;;;7.10;6.40;;;;;;;;;;5036481;28;20569;-79
2021/06/16 01:41:50;;;;;;;8.73;7.63;;;;;;;;;;5038997;28;20457;-78
2021/06/16 01:44:22;;;;;;;8.07;7.43;;;;;;;;;;5042161;28;20486;-77
2021/06/16 01:46:50;;;;;;;7.87;7.27;;;;;;;;;;5031442;28;20512;-79
2021/06/16 01:49:18;;;;;;;7.77;7.17;;;;;;;;;;5032582;28;20541;-79
2021/06/16 01:51:45;;;;;;;7.00;6.40;;;;;;;;;;5038103;28;20485;-79
2021/06/16 01:54:13;;;;;;;7.90;7.30;;;;;;;;;;5033418;28;21032;-79
2021/06/16 01:56:41;;;;;;;8.60;7.80;;;;;;;;;;5039814;28;20481;-79
2021/06/16 01:59:09;;;;;;;7.87;7.30;;;;;;;;;;5032423;28;21219;-78
2021/06/16 02:01:37;;;;;;;7.97;7.17;;;;;;;;;;5036836;28;20450;-79
2021/06/16 02:04:05;;;;;;;8.40;7.60;;;;;;;;;;5034287;28;20760;-79
2021/06/16 02:06:35;;;;;;;9.70;8.70;;;;;;;;;;5029355;28;20478;-79
2021/06/16 02:09:03;;;;;;;8.50;7.80;;;;;;;;;;5034745;28;20447;-77
2021/06/16 02:11:31;;;;;;;8.53;7.83;;;;;;;;;;5037496;28;20508;-78
2021/06/16 02:14:00;;;;;;;10.97;7.67;;;;;;;;;;5033350;28;20458;-79
2021/06/16 02:16:30;;;;;;;7.70;7.10;;;;;;;;;;5037599;28;20616;-77
2021/06/16 02:19:01;;;;;;;9.83;8.70;;;;;;;;;;5028639;28;21169;-77
2021/06/16 02:21:28;;;;;;;8.80;8.00;;;;;;;;;;5034326;28;20516;-77
2021/06/16 02:23:56;;;;;;;11.10;8.67;;;;;;;;;;5030914;28;21048;-79
2021/06/16 02:26:24;;;;;;;8.93;8.20;;;;;;;;;;5034638;28;20512;-78
2021/06/16 02:28:51;;;;;;;9.00;8.20;;;;;;;;;;5034633;28;20447;-78
2021/06/16 02:31:18;;;;;;;9.70;7.93;;;;;;;;;;5032585;28;20586;-77
2021/06/16 02:33:45;;;;;;;8.90;8.20;;;;;;;;;;5036699;28;21010;-78
2021/06/16 02:36:14;;;;;;;9.30;8.60;;;;;;;;;;5032884;28;20516;-78
2021/06/16 02:38:43;;;;;;;9.70;8.90;;;;;;;;;;5033359;28;20567;-78
2021/06/16 02:41:12;;;;;;;9.03;8.33;;;;;;;;;;5035055;28;20488;-77
2021/06/16 02:43:40;;;;;;;9.90;8.87;;;;;;;;;;5035106;28;20504;-78
2021/06/16 02:46:08;;;;;;;9.60;8.70;;;;;;;;;;5032673;28;20493;-78
2021/06/16 02:48:35;;;;;;;9.23;8.33;;;;;;;;;;5038180;28;20490;-78
2021/06/16 02:51:03;;;;;;;9.67;8.80;;;;;;;;;;5033531;28;20557;-78
2021/06/16 02:53:31;;;;;;;10.47;8.40;;;;;;;;;;5036296;28;20480;-77
2021/06/16 02:56:03;;;;;;;9.00;8.30;;;;;;;;;;5034096;28;20451;-79
2021/06/16 02:58:31;;;;;;;10.33;9.20;;;;;;;;;;5034384;28;20541;-78
2021/06/16 03:00:59;;;;;;;10.87;9.90;;;;;;;;;;5034885;28;20451;-77
2021/06/16 03:03:27;;;;;;;10.10;9.13;;;;;;;;;;5034332;28;20473;-78
2021/06/16 03:05:55;;;;;;;9.40;8.57;;;;;;;;;;5037955;28;20460;-77
2021/06/16 03:08:24;;;;;;;10.47;9.37;;;;;;;;;;5038724;28;20478;-78
2021/06/16 03:10:53;;;;;;;10.13;9.10;;;;;;;;;;5034069;28;20972;-78
2021/06/16 03:13:21;;;;;;;10.10;9.13;;;;;;;;;;5035726;28;20800;-78
2021/06/16 03:15:49;;;;;;;9.23;8.50;;;;;;;;;;5029833;28;20482;-78
2021/06/16 03:18:17;;;;;;;10.03;9.23;;;;;;;;;;5033874;28;20493;-78
2021/06/16 03:20:44;;;;;;;11.13;9.10;;;;;;;;;;5034438;28;20521;-78
2021/06/16 03:23:12;;;;;;;9.50;8.67;;;;;;;;;;5034354;28;20477;-78
2021/06/16 03:25:40;;;;;;;10.40;9.50;;;;;;;;;;5032487;28;20458;-78
2021/06/16 03:28:09;;;;;;;11.17;10.27;;;;;;;;;;5035719;28;20554;-79
2021/06/16 03:30:38;;;;;;;10.93;9.83;;;;;;;;;;5030152;28;20461;-78
2021/06/16 03:33:06;;;;;;;14.67;9.97;;;;;;;;;;5031343;28;20519;-78
2021/06/16 03:35:34;;;;;;;9.97;8.93;;;;;;;;;;5032936;28;20486;-78
2021/06/16 03:38:03;;;;;;;9.70;8.63;;;;;;;;;;5029224;28;20446;-78
2021/06/16 03:40:32;;;;;;;10.53;9.33;;;;;;;;;;5031518;28;20504;-78
2021/06/16 03:42:59;;;;;;;10.30;9.30;;;;;;;;;;5034328;28;20450;-78
2021/06/16 03:45:28;;;;;;;11.90;8.73;;;;;;;;;;5032724;28;20461;-77
2021/06/16 03:48:00;;;;;;;11.13;9.97;;;;;;;;;;5031957;28;20457;-77
2021/06/16 03:50:28;;;;;;;9.70;8.73;;;;;;;;;;5033454;28;20563;-77
2021/06/16 03:52:55;;;;;;;10.60;9.60;;;;;;;;;;5033335;28;20454;-79
2021/06/16 03:55:23;;;;;;;13.80;9.63;;;;;;;;;;5036291;28;20496;-79
2021/06/16 03:57:51;;;;;;;11.17;10.17;;;;;;;;;;5039918;28;20463;-79
2021/06/16 04:00:18;;;;;;;10.33;9.53;;;;;;;;;;5033635;28;20474;-77
2021/06/16 04:02:48;;;;;;;11.80;9.80;;;;;;;;;;5035280;28;20462;-79
2021/06/16 04:05:16;;;;;;;11.70;10.60;;;;;;;;;;5035010;28;20450;-77
2021/06/16 04:07:44;;;;;;;10.33;9.33;;;;;;;;;;5029278;28;20466;-77
2021/06/16 04:10:13;;;;;;;12.70;10.53;;;;;;;;;;5029079;28;20546;-78
2021/06/16 04:12:40;;;;;;;11.13;9.93;;;;;;;;;;5032666;28;20455;-78
2021/06/16 04:15:07;;;;;;;10.60;9.57;;;;;;;;;;5032385;28;20575;-78
2021/06/16 04:17:35;;;;;;;15.80;9.50;;;;;;;;;;5032784;28;20474;-78
2021/06/16 04:20:03;;;;;;;13.87;9.10;;;;;;;;;;5029624;28;20528;-79
2021/06/16 04:22:31;;;;;;;9.80;8.80;;;;;;;;;;5032711;28;20508;-78
2021/06/16 04:24:58;;;;;;;9.70;8.70;;;;;;;;;;5028805;28;21325;-80
2021/06/16 04:27:25;;;;;;;10.20;9.13;;;;;;;;;;5030119;28;20452;-79
2021/06/16 04:29:52;;;;;;;14.53;9.07;;;;;;;;;;5031559;28;20560;-79
2021/06/16 04:32:19;;;;;;;9.60;8.60;;;;;;;;;;5034100;28;20455;-79
2021/06/16 04:34:46;;;;;;;11.60;8.80;;;;;;;;;;5034882;28;20811;-78
2021/06/16 04:37:15;;;;;;;10.43;9.37;;;;;;;;;;5037300;28;20446;-78
2021/06/16 04:39:42;;;;;;;12.70;10.00;;;;;;;;;;5034814;28;20549;-78
2021/06/16 04:42:09;;;;;;;10.47;8.70;;;;;;;;;;5033561;28;20519;-77
2021/06/16 04:44:36;;;;;;;11.10;9.40;;;;;;;;;;5032493;28;20459;-77
2021/06/16 04:47:04;;;;;;;10.53;9.40;;;;;;;;;;5034571;28;20529;-77
2021/06/16 04:49:32;;;;;;;13.90;9.07;;;;;;;;;;5032046;28;20461;-78
2021/06/16 04:52:00;;;;;;;9.17;8.30;;;;;;;;;;5034654;28;20541;-77
2021/06/16 04:54:28;;;;;;;10.90;9.80;;;;;;;;;;5040495;28;20540;-78
2021/06/16 04:57:03;;;;;;;10.50;9.13;;;;;;;;;;5035960;28;20449;-78
2021/06/16 04:59:30;;;;;;;9.87;8.87;;;;;;;;;;5030951;28;20477;-78
2021/06/16 05:01:57;;;;;;;9.70;8.90;;;;;;;;;;5032171;28;20994;-78
2021/06/16 05:04:24;;;;;;;10.10;9.10;;;;;;;;;;5035100;28;20478;-78
2021/06/16 05:06:51;;;;;;;8.17;7.43;;;;;;;;;;5036405;28;20465;-78
2021/06/16 05:09:18;;;;;;;10.20;9.20;;;;;;;;;;5036192;28;20438;-78
2021/06/16 05:11:47;;;;;;;10.93;9.80;;;;;;;;;;5030606;28;20458;-78
2021/06/16 05:14:14;;;;;;;10.17;9.20;;;;;;;;;;5034687;28;20516;-78
2021/06/16 05:16:41;;;;;;;10.20;9.20;;;;;;;;;;5035764;28;20474;-78
2021/06/16 05:19:15;;;;;;;10.53;9.30;;;;;;;;;;5033316;28;20465;-77
2021/06/16 05:21:42;;;;;;;10.20;9.20;;;;;;;;;;5034403;28;20446;-77
2021/06/16 05:24:09;;;;;;;10.87;9.80;;;;;;;;;;5035107;28;21126;-78
2021/06/16 05:26:37;;;;;;;10.17;9.20;;;;;;;;;;5037444;28;20466;-78
2021/06/16 05:29:06;;;;;;;10.93;9.43;;;;;;;;;;5036256;28;20463;-77
2021/06/16 05:31:33;;;;;;;10.83;9.10;;;;;;;;;;5034342;28;20467;-78
2021/06/16 05:34:00;;;;;;;9.33;8.43;;;;;;;;;;5033776;28;20445;-79
2021/06/16 05:36:27;;;;;;;11.90;10.67;;;;;;;;;;5035787;28;20475;-78
2021/06/16 05:38:55;;;;;;;11.90;8.53;;;;;;;;;;5035068;28;20480;-77
2021/06/16 05:41:22;;;;;;;10.50;9.50;;;;;;;;;;5039468;28;20491;-78
2021/06/16 05:43:50;;;;;;;10.53;9.53;;;;;;;;;;5035968;28;20462;-78
2021/06/16 05:46:18;;;;;;;10.80;8.83;;;;;;;;;;5035540;28;20942;-77
2021/06/16 05:48:45;;;;;;;10.27;9.17;;;;;;;;;;5034459;28;20956;-79
2021/06/16 05:51:12;;;;;;;11.47;9.03;;;;;;;;;;5041899;28;20484;-78
2021/06/16 05:53:40;;;;;;;11.67;9.00;;;;;;;;;;5037038;28;21038;-79
2021/06/16 05:56:07;;;;;;;14.20;10.30;;;;;;;;;;5037017;28;20978;-79
2021/06/16 05:58:34;;;;;;;20.77;10.07;;;;;;;;;;5031663;28;21043;-78
2021/06/16 06:01:01;;;;;;;9.40;8.60;;;;;;;;;;5031737;28;21064;-78
2021/06/16 06:03:30;;;;;;;10.87;9.87;;;;;;;;;;5035928;28;20820;-78
2021/06/16 06:05:57;;;;;;;10.33;9.47;;;;;;;;;;5034571;28;20576;-78
2021/06/16 06:08:24;;;;;;;11.03;10.03;;;;;;;;;;5031278;28;20535;-78
2021/06/16 06:10:53;;;;;;;12.17;10.57;;;;;;;;;;5038785;28;20453;-77
2021/06/16 06:13:20;;;;;;;11.63;10.50;;;;;;;;;;5036857;28;20763;-77
2021/06/16 06:15:47;;;;;;;11.33;9.40;;;;;;;;;;5036008;28;20574;-78
2021/06/16 06:18:15;;;;;;;87.27;17.27;;;;;;;;;;5035226;28;21027;-77
2021/06/16 06:20:44;;;;;;;11.20;10.07;;;;;;;;;;5037010;28;20474;-77
2021/06/16 06:23:12;;;;;;;8.97;8.17;;;;;;;;;;5035356;28;20492;-77
2021/06/16 06:25:40;;;;;;;11.10;10.00;;;;;;;;;;5038179;28;20461;-78
2021/06/16 06:28:08;;;;;;;10.30;9.40;;;;;;;;;;5033618;28;20815;-77
2021/06/16 06:30:35;;;;;;;16.57;10.10;;;;;;;;;;5035579;28;20480;-78
2021/06/16 06:33:02;;;;;;;9.60;8.80;;;;;;;;;;5038002;28;20496;-78
2021/06/16 06:35:29;;;;;;;11.23;9.70;;;;;;;;;;5037708;28;20492;-77
2021/06/16 06:37:58;;;;;;;10.33;9.37;;;;;;;;;;5039065;28;20957;-77
2021/06/16 06:40:25;;;;;;;10.63;9.63;;;;;;;;;;5037026;28;20463;-77
2021/06/16 06:42:52;;;;;;;11.93;9.27;;;;;;;;;;5033178;28;20453;-77
2021/06/16 06:45:20;;;;;;;9.93;8.97;;;;;;;;;;5034501;28;20454;-75
2021/06/16 06:47:47;;;;;;;10.43;9.53;;;;;;;;;;5038050;28;21059;-78
2021/06/16 06:50:16;;;;;;;14.30;9.77;;;;;;;;;;5033272;28;20544;-77
2021/06/16 06:52:44;;;;;;;10.23;9.33;;;;;;;;;;5038088;28;20485;-78
2021/06/16 06:55:13;;;;;;;10.13;9.07;;;;;;;;;;5036247;28;20517;-77
2021/06/16 06:57:41;;;;;;;15.93;10.10;;;;;;;;;;5039913;28;20904;-77
2021/06/16 07:00:09;;;;;;;9.23;8.10;;;;;;;;;;5035400;28;20469;-76
2021/06/16 07:02:36;;;;;;;17.90;10.03;;;;;;;;;;5036906;28;20507;-76
2021/06/16 07:05:04;;;;;;;9.53;8.67;;;;;;;;;;5037234;28;21026;-77
2021/06/16 07:07:31;;;;;;;8.43;7.63;;;;;;;;;;5029637;28;20450;-77
2021/06/16 07:10:01;;;;;;;8.87;7.90;;;;;;;;;;5037162;28;20520;-77
2021/06/16 07:12:32;;;;;;;7.90;7.30;;;;;;;;;;5041241;28;20447;-79
2021/06/16 07:14:59;;;;;;;13.30;8.80;;;;;;;;;;5043982;28;20453;-78
2021/06/16 07:17:26;;;;;;;9.37;8.47;;;;;;;;;;5039229;28;20481;-75
2021/06/16 07:19:53;;;;;;;9.13;8.00;;;;;;;;;;5036398;28;20473;-75
2021/06/16 07:22:20;;;;;;;8.50;7.90;;;;;;;;;;5024693;28;20974;-76
2021/06/16 07:24:48;;;;;;;9.50;8.00;;;;;;;;;;5024643;28;20535;-77
2021/06/16 07:27:15;;;;;;;9.20;7.00;;;;;;;;;;5023221;28;20470;-76
2021/06/16 07:29:43;;;;;;;8.90;8.10;;;;;;;;;;5028208;28;20450;-75
2021/06/16 07:32:11;;;;;;;8.57;7.83;;;;;;;;;;5029481;28;20593;-78
2021/06/16 07:34:38;;;;;;;9.20;7.83;;;;;;;;;;5033508;28;20814;-76
2021/06/16 07:37:05;;;;;;;8.70;7.90;;;;;;;;;;5041575;28;20488;-76
2021/06/16 07:39:32;;;;;;;7.93;7.33;;;;;;;;;;5039017;28;20507;-78
2021/06/16 07:41:59;;;;;;;8.90;8.20;;;;;;;;;;5032833;28;21049;-76
2021/06/16 07:44:27;;;;;;;8.23;7.40;;;;;;;;;;5034205;28;20743;-76
2021/06/16 07:46:55;;;;;;;8.73;8.03;;;;;;;;;;5032410;28;20458;-76
2021/06/16 07:49:22;;;;;;;9.97;8.93;;;;;;;;;;5032863;28;20913;-77
2021/06/16 07:51:50;;;;;;;8.87;7.97;;;;;;;;;;5028760;28;20443;-75
2021/06/16 07:54:17;;;;;;;10.93;7.83;;;;;;;;;;5032997;28;20455;-79
2021/06/16 07:56:44;;;;;;;8.47;7.77;;;;;;;;;;5034090;28;20917;-75
2021/06/16 07:59:11;;;;;;;8.57;7.83;;;;;;;;;;5028254;28;20451;-76
2021/06/16 08:01:40;;;;;;;8.10;7.40;;;;;;;;;;5031010;28;20466;-80
2021/06/16 08:04:08;;;;;;;13.30;8.47;;;;;;;;;;5040609;28;20557;-79
2021/06/16 08:06:36;;;;;;;8.27;7.47;;;;;;;;;;5034702;28;20500;-75
2021/06/16 08:09:03;;;;;;;9.07;8.37;;;;;;;;;;5031848;28;20518;-76
2021/06/16 08:11:30;;;;;;;8.37;7.57;;;;;;;;;;5031062;28;20447;-78
2021/06/16 08:13:57;;;;;;;12.53;7.57;;;;;;;;;;5026499;28;20458;-76
2021/06/16 08:16:24;;;;;;;9.10;8.20;;;;;;;;;;5027690;28;20503;-75
2021/06/16 08:18:52;;;;;;;7.50;6.80;;;;;;;;;;5032695;28;20458;-76
2021/06/16 08:21:21;;;;;;;8.97;7.87;;;;;;;;;;5029479;28;20498;-77
2021/06/16 08:23:48;;;;;;;8.70;8.00;;;;;;;;;;5031269;28;20462;-76
2021/06/16 08:26:16;;;;;;;9.23;8.47;;;;;;;;;;5035677;28;20453;-76
2021/06/16 08:28:43;;;;;;;8.33;7.63;;;;;;;;;;5030974;28;20538;-75
2021/06/16 08:31:10;;;;;;;8.03;7.40;;;;;;;;;;5030252;28;20489;-76
2021/06/16 08:33:39;;;;;;;8.27;7.57;;;;;;;;;;5026964;28;20961;-75
2021/06/16 08:36:07;;;;;;;8.67;7.50;;;;;;;;;;5030422;28;20552;-77
2021/06/16 08:38:35;;;;;;;8.93;7.20;;;;;;;;;;5030999;28;20509;-77
2021/06/16 08:41:05;;;;;;;17.30;8.70;;;;;;;;;;5036098;28;20843;-76
2021/06/16 08:43:40;;;;;;;8.20;7.40;;;;;;;;;;5033931;28;20940;-76
2021/06/16 08:46:08;;;;;;;10.40;8.13;;;;;;;;;;5035321;28;20972;-76
2021/06/16 08:48:36;;;;;;;9.83;6.80;;;;;;;;;;5033733;28;20455;-76
2021/06/16 08:51:03;;;;;;;9.67;7.07;;;;;;;;;;5028543;28;20446;-76
2021/06/16 08:53:31;;;;;;;7.80;7.10;;;;;;;;;;5032754;28;20493;-78
2021/06/16 08:55:59;;;;;;;6.63;6.13;;;;;;;;;;5033015;28;20587;-76
2021/06/16 08:58:27;;;;;;;7.90;7.10;;;;;;;;;;5030299;28;20528;-77
2021/06/16 09:00:54;;;;;;;7.43;6.60;;;;;;;;;;5033591;28;20552;-75
2021/06/16 09:03:22;;;;;;;6.93;6.20;;;;;;;;;;5029946;28;20459;-77
2021/06/16 09:05:50;;;;;;;6.83;6.20;;;;;;;;;;5034459;28;20530;-78
2021/06/16 09:08:19;;;;;;;8.40;6.77;;;;;;;;;;5034083;28;20945;-75
2021/06/16 09:10:46;;;;;;;8.00;7.07;;;;;;;;;;5031938;28;20446;-77
2021/06/16 09:13:25;;;;;;;7.30;6.70;;;;;;;;;;5036142;28;20454;-77
2021/06/16 09:15:52;;;;;;;7.10;6.40;;;;;;;;;;5036346;28;20539;-76
2021/06/16 09:18:20;;;;;;;6.70;6.20;;;;;;;;;;5033961;28;20580;-78
2021/06/16 09:20:48;;;;;;;7.00;6.37;;;;;;;;;;5035227;28;20498;-76
2021/06/16 09:23:18;;;;;;;7.63;6.53;;;;;;;;;;5038565;28;20454;-83
2021/06/16 09:25:46;;;;;;;7.43;6.30;;;;;;;;;;5053457;28;20492;-81
2021/06/16 09:28:13;;;;;;;8.93;6.20;;;;;;;;;;5049567;28;20461;-82
2021/06/16 09:30:44;;;;;;;9.63;6.57;;;;;;;;;;5052227;28;20541;-82
2021/06/16 09:33:13;;;;;;;7.43;5.83;;;;;;;;;;5045660;28;20442;-82
2021/06/16 09:35:42;;;;;;;7.70;6.43;;;;;;;;;;5040082;28;20456;-82
2021/06/16 09:38:14;;;;;;;6.70;6.10;;;;;;;;;;5044483;28;20508;-86
2021/06/16 09:40:42;;;;;;;7.30;6.50;;;;;;;;;;5045717;28;20450;-82
2021/06/16 09:43:11;;;;;;;6.50;5.93;;;;;;;;;;5046936;28;20521;-81
2021/06/16 09:45:40;;;;;;;8.33;6.60;;;;;;;;;;5046415;28;20501;-81
2021/06/16 09:48:23;;;;;;;6.20;5.60;;;;;;;;;;5043438;28;20454;-81
2021/06/16 09:50:51;;;;;;;6.27;5.67;;;;;;;;;;5046191;28;20442;-75
2021/06/16 09:53:19;;;;;;;6.07;5.43;;;;;;;;;;5029348;28;20466;-75
2021/06/16 09:55:47;;;;;;;6.33;5.70;;;;;;;;;;5029635;28;20450;-75
2021/06/16 09:58:17;;;;;;;6.90;6.23;;;;;;;;;;5030546;28;20458;-74
2021/06/16 10:00:47;;;;;;;6.30;5.80;;;;;;;;;;5027176;28;20536;-74
2021/06/16 10:03:16;;;;;;;10.50;6.50;;;;;;;;;;5023391;28;20968;-75
2021/06/16 10:06:10;;;;;;;6.40;5.83;;;;;;;;;;5025427;28;20454;-74
2021/06/16 10:08:42;;;;;;;6.17;5.57;;;;;;;;;;4997353;28;20493;-76
2021/06/16 10:11:09;;;;;;;6.27;5.67;;;;;;;;;;5027346;28;20594;-74
2021/06/16 10:13:37;;;;;;;8.00;6.30;;;;;;;;;;5026437;28;20537;-75
2021/06/16 10:16:05;;;;;;;6.53;5.93;;;;;;;;;;5029842;28;20466;-74
2021/06/16 10:18:34;;;;;;;5.77;5.27;;;;;;;;;;5026522;28;20552;-76
2021/06/16 10:21:01;;;;;;;8.10;5.60;;;;;;;;;;5028996;28;20470;-75
2021/06/16 10:23:28;;;;;;;5.17;4.67;;;;;;;;;;5030302;28;20462;-73
2021/06/16 10:26:02;;;;;;;4.83;4.43;;;;;;;;;;5031532;28;20478;-74
2021/06/16 10:28:34;;;;;;;5.50;5.00;;;;;;;;;;5028228;28;20451;-75
2021/06/16 10:31:01;;;;;;;5.40;4.90;;;;;;;;;;5028666;28;23139;-73
2021/06/16 10:33:32;;;;;;;6.00;4.33;;;;;;;;;;5027853;28;20454;-74
2021/06/16 10:36:12;;;;;;;7.30;4.70;;;;;;;;;;5029305;28;20474;-73
2021/06/16 10:38:40;;;;;;;5.93;5.40;;;;;;;;;;5028282;28;20459;-73
2021/06/16 10:41:09;;;;;;;5.00;4.60;;;;;;;;;;5029426;28;20473;-72
2021/06/16 10:45:36;;;;;;;6.10;5.30;;;30.10;62.20;;;;;;5044082;27;20548;-81
2021/06/16 10:48:05;;;;;;;5.60;4.60;;;28.70;53.00;;;;;;5098463;28;21306;-79
2021/06/16 10:51:00;;;;;;;5.90;5.00;;;29.60;49.10;;;;;;5103182;28;20961;-80
2021/06/16 10:53:27;;;;;;;4.80;4.50;;;30.30;48.60;;;;;;5100796;28;20495;-80
2021/06/16 10:56:08;;;;;;;5.20;4.43;;;;;;;;;;5100739;28;20444;-83
2021/06/16 10:58:45;;;;;;;5.40;5.00;;;;;;;;;;5103513;28;20458;-81
2021/06/16 11:01:15;;;;;;;5.37;4.87;;;;;;;;;;5101002;28;20452;-80
2021/06/16 11:04:01;;;;;;;4.83;4.40;;;;;;;;;;5103864;28;20463;-81
2021/06/16 11:06:41;;;;;;;5.20;4.80;;;;;;;;;;5098739;28;20563;-81
2021/06/16 11:09:09;;;;;;;4.70;4.30;;;;;;;;;;5095352;28;20456;-79
2021/06/16 11:12:00;;;;;;;5.37;4.97;;;;;;;;;;5090172;28;20436;-80
2021/06/16 11:14:48;;;;;;;5.70;5.17;;;;;;;;;;5087900;28;21102;-77
2021/06/16 11:17:33;;;;;;;5.67;5.20;;;;;;;;;;5070277;28;20476;-78
2021/06/16 11:20:02;;;;;;;7.93;4.83;;;;;;;;;;5064185;28;21236;-78
2021/06/16 11:22:33;;;;;;;5.27;4.77;;;;;;;;;;5069586;28;20441;-77
2021/06/16 11:25:11;;;;;;;4.80;4.40;;;;;;;;;;5065492;28;20461;-78
2021/06/16 11:27:54;;;;;;;5.87;5.47;;;;;;;;;;5065150;28;20471;-77
2021/06/16 11:30:29;;;;;;;5.90;5.40;;;;;;;;;;5062009;28;20452;-77
2021/06/16 11:33:24;;;;;;;4.93;4.53;;;;;;;;;;5063877;28;20458;-78
2021/06/16 11:35:58;;;;;;;5.20;4.90;;;;;;;;;;5051775;28;20550;-79
2021/06/16 11:38:29;;;;;;;8.23;5.40;;;;;;;;;;5079574;28;20601;-76
2021/06/16 11:40:57;;;;;;;7.23;5.10;;;;;;;;;;5064489;28;21019;-74
2021/06/16 11:43:31;;;;;;;5.30;4.80;;;;;;;;;;5064300;28;20449;-76
2021/06/16 11:45:58;;;;;;;4.77;4.23;;;;;;;;;;5058872;28;20559;-76
2021/06/16 11:48:25;;;;;;;4.67;4.37;;;30.60;48.00;;;;;;5065718;28;20457;-74
2021/06/16 11:50:52;;;;;;;4.93;4.53;;;32.50;46.20;;;;;;5068059;28;20445;-74
2021/06/16 11:53:28;;;;;;;8.07;5.23;;;32.30;45.80;;;;;;5065142;28;20448;-74
2021/06/16 11:55:56;;;;;;;6.27;4.73;;;32.30;45.80;;;;;;5057213;28;20445;-75
2021/06/16 11:58:24;;;;;;;5.40;4.90;;;32.40;46.00;;;;;;5048657;28;20461;-76
2021/06/16 12:00:52;;;;;;;5.00;4.63;;;32.60;45.80;;;;;;5052103;28;20956;-75
2021/06/16 12:03:19;;;;;;;4.70;4.40;;;32.50;45.30;;;;;;5048922;28;20460;-74
2021/06/16 12:05:46;;;;;;;8.23;4.17;;;32.60;45.60;;;;;;5052415;28;21286;-75
2021/06/16 12:08:23;;;;;;;4.50;4.20;;;32.70;45.40;;;;;;5049087;28;20815;-74
2021/06/16 12:10:51;;;;;;;4.97;4.60;;;32.50;46.30;;;;;;5051840;28;20449;-75
2021/06/16 12:13:18;;;;;;;4.43;4.07;;;32.90;45.50;;;;;;5048652;28;20480;-75
2021/06/16 12:15:45;;;;;;;4.60;4.30;;;33.00;44.90;;;;;;5052120;28;20477;-75
2021/06/16 12:18:13;;;;;;;4.27;3.97;;;32.60;44.80;;;;;;5051807;28;20609;-74
2021/06/16 12:20:43;;;;;;;4.43;4.23;;;31.60;44.90;;;;;;5056102;28;20453;-74
2021/06/16 12:23:28;;;;;;;4.73;4.33;;;31.60;45.40;;;;;;5051137;28;20481;-74
2021/06/16 12:26:08;;;;;;;4.47;4.07;;;31.60;45.00;;;;;;5050999;28;20679;-74
2021/06/16 12:28:38;;;;;;;5.33;3.90;;;31.10;45.00;;;;;;5046946;28;21118;-75
2021/06/16 12:31:08;;;;;;;4.70;4.30;;;31.20;45.50;;;;;;5050981;28;20825;-75
2021/06/16 12:33:41;;;;;;;4.40;4.00;;;31.60;44.80;;;;;;5048036;28;20858;-75
2021/06/16 12:36:18;;;;;;;4.73;4.23;;;31.60;44.40;;;;;;5051635;28;20488;-74
2021/06/16 12:38:47;;;;;;;4.73;4.30;;;31.70;44.70;;;;;;5047921;28;21051;-75
2021/06/16 12:41:33;;;;;;;4.23;3.80;;;31.40;44.20;;;;;;5051918;28;20944;-74
2021/06/16 12:44:13;;;;;;;4.67;4.33;;;31.30;44.30;;;;;;5048420;28;20542;-74
2021/06/16 12:46:53;;;;;;;6.70;3.80;;;31.40;44.30;;;;;;5053720;28;20568;-74
2021/06/16 12:49:21;;;;;;;3.50;3.20;;;31.50;44.10;;;;;;5047073;28;20978;-75
2021/06/16 12:51:49;;;;;;;3.60;3.30;;;31.40;44.60;;;;;;5051298;28;20500;-74
2021/06/16 12:54:27;;;;;;;4.23;3.93;;;31.40;45.40;;;;;;5045214;28;20496;-74
2021/06/16 12:57:18;;;;;;;6.60;3.83;;;31.80;44.80;;;;;;5051333;28;20445;-74
2021/06/16 12:59:47;;;;;;;5.00;3.60;;;32.00;44.30;;;;;;5046621;28;20617;-77
2021/06/16 13:02:23;;;;;;;4.10;3.70;;;31.90;44.10;;;;;;5052634;28;20890;-74
2021/06/16 13:04:52;;;;;;;4.37;3.70;;;32.10;44.10;;;;;;5047731;28;21020;-74
2021/06/16 13:07:21;;;;;;;3.60;3.30;;;32.10;43.70;;;;;;5049503;28;20545;-75
2021/06/16 13:10:03;;;;;;;5.33;4.60;;;32.00;43.40;;;;;;5047049;28;20465;-75
2021/06/16 13:12:32;;;;;;;4.77;3.87;;;32.10;44.00;;;;;;5049098;28;20982;-74
2021/06/16 13:15:01;;;;;;;4.00;3.70;;;32.50;43.70;;;;;;5051802;28;21017;-75
2021/06/16 13:17:28;;;;;;;4.17;3.83;;;32.50;43.10;;;;;;5050159;28;21014;-74
2021/06/16 13:19:57;;;;;;;4.17;3.77;;;32.40;43.80;;;;;;5046305;28;20507;-75
2021/06/16 13:22:34;;;;;;;4.23;3.93;;;32.30;43.10;;;;;;5055752;28;21211;-74
2021/06/16 13:25:01;;;;;;;4.03;3.80;;;32.30;43.20;;;;;;5046329;28;21041;-75
2021/06/16 13:27:30;;;;;;;4.20;3.77;;;32.40;43.20;;;;;;5049166;28;20496;-75
2021/06/16 13:30:02;;;;;;;9.70;4.23;;;31.90;43.60;;;;;;5045529;28;20548;-75
2021/06/16 13:32:39;;;;;;;4.20;3.90;;;32.10;44.10;;;;;;5050647;28;20529;-75
2021/06/16 13:35:07;;;;;;;6.73;4.10;;;32.50;44.30;;;;;;5051000;28;20487;-74
2021/06/16 13:37:34;;;;;;;4.30;4.00;;;32.60;43.80;;;;;;5049512;28;20456;-74
2021/06/16 13:40:01;;;;;;;4.63;4.30;;;32.60;43.70;;;;;;5048294;28;20932;-75
2021/06/16 13:42:28;;;;;;;5.03;4.00;;;32.70;43.80;;;;;;5045600;28;20457;-74
2021/06/16 13:44:57;;;;;;;5.00;4.70;;;32.60;44.00;;;;;;5048408;28;20462;-74
2021/06/16 13:47:24;;;;;;;3.97;3.77;;;32.70;44.00;;;;;;5044910;28;20883;-74
2021/06/16 13:49:51;;;;;;;5.83;4.47;;;32.70;43.80;;;;;;5047424;28;21051;-74
2021/06/16 13:52:20;;;;;;;4.70;4.30;;;32.80;44.00;;;;;;5043966;28;20519;-76
2021/06/16 13:54:48;;;;;;;6.70;3.73;;;33.10;43.40;;;;;;5048531;28;20987;-74
2021/06/16 13:57:15;;;;;;;4.20;3.90;;;33.20;43.60;;;;;;5045973;28;20477;-74
2021/06/16 13:59:42;;;;;;;4.47;4.07;;;33.00;43.80;;;;;;5047955;28;20461;-75
2021/06/16 14:02:11;;;;;;;4.60;3.90;;;32.90;43.50;;;;;;5045935;28;20983;-75
2021/06/16 14:04:38;;;;;;;5.50;4.60;;;33.00;43.80;;;;;;5048319;28;20473;-75
2021/06/16 14:07:06;;;;;;;4.83;3.97;;;33.20;43.90;;;;;;5045446;28;20465;-74
2021/06/16 14:09:32;;;;;;;4.13;3.83;;;32.50;44.00;;;;;;5045785;28;20521;-75
2021/06/16 14:11:59;;;;;;;4.50;4.20;;;32.60;44.40;;;;;;5049439;28;20962;-75
2021/06/16 14:14:26;;;;;;;5.07;4.43;;;32.60;44.10;;;;;;5048707;28;20457;-75
2021/06/16 14:16:53;;;;;;;4.40;4.07;;;32.50;44.20;;;;;;5046578;28;20469;-75
2021/06/16 14:19:22;;;;;;;5.70;4.27;;;32.80;44.30;;;;;;5047467;28;20537;-74
2021/06/16 14:21:50;;;;;;;4.70;4.30;;;32.60;44.10;;;;;;5045984;28;20516;-74
2021/06/16 14:24:16;;;;;;;4.23;3.83;;;32.50;44.00;;;;;;5048098;28;20437;-74
2021/06/16 14:26:43;;;;;;;5.27;4.07;;;32.50;44.10;;;;;;5049067;28;20528;-74